sensor_id;sensor_type;location;lat;lon;timestamp;temperature;humidity
31038;DHT22;17702;47.590;7.666;2023-07-31T19:37:39;22.90;90.70
31038;DHT22;17702;47.590;7.666;2023-07-31T19:40:05;22.90;91.10
31038;DHT22;17702;47.590;7.666;2023-07-31T19:42:30;22.80;91.60
31038;DHT22;17702;47.590;7.666;2023-07-31T19:44:58;22.80;92.00
31038;DHT22;17702;47.590;7.666;2023-07-31T19:47:23;22.70;92.60
31038;DHT22;17702;47.590;7.666;2023-07-31T19:49:52;22.70;93.20
31038;DHT22;17702;47.590;7.666;2023-07-31T19:52:17;22.70;93.40
31038;DHT22;17702;47.590;7.666;2023-07-31T19:54:43;22.60;93.90
31038;DHT22;17702;47.590;7.666;2023-07-31T19:57:09;22.60;93.60
31038;DHT22;17702;47.590;7.666;2023-07-31T19:59:34;22.50;93.70
31038;DHT22;17702;47.590;7.666;2023-07-31T20:02:00;22.60;93.80
31038;DHT22;17702;47.590;7.666;2023-07-31T20:04:25;22.60;93.10
31038;DHT22;17702;47.590;7.666;2023-07-31T20:06:51;22.60;92.60
31038;DHT22;17702;47.590;7.666;2023-07-31T20:09:17;22.60;92.50
31038;DHT22;17702;47.590;7.666;2023-07-31T20:11:42;22.60;92.80
31038;DHT22;17702;47.590;7.666;2023-07-31T20:14:09;22.60;93.50
31038;DHT22;17702;47.590;7.666;2023-07-31T20:16:35;22.50;93.50
31038;DHT22;17702;47.590;7.666;2023-07-31T20:19:05;22.50;93.60
31038;DHT22;17702;47.590;7.666;2023-07-31T20:21:31;22.50;93.70
31038;DHT22;17702;47.590;7.666;2023-07-31T20:23:56;22.40;93.80
31038;DHT22;17702;47.590;7.666;2023-07-31T20:26:22;22.50;94.10
31038;DHT22;17702;47.590;7.666;2023-07-31T20:28:47;22.50;94.50
31038;DHT22;17702;47.590;7.666;2023-07-31T20:31:13;22.40;94.30
31038;DHT22;17702;47.590;7.666;2023-07-31T20:33:39;22.40;94.00
31038;DHT22;17702;47.590;7.666;2023-07-31T20:36:04;22.40;94.60
31038;DHT22;17702;47.590;7.666;2023-07-31T20:38:31;22.40;94.60
31038;DHT22;17702;47.590;7.666;2023-07-31T20:40:56;22.40;93.40
31038;DHT22;17702;47.590;7.666;2023-07-31T20:43:22;22.40;93.70
31038;DHT22;17702;47.590;7.666;2023-07-31T20:45:47;22.40;94.00
31038;DHT22;17702;47.590;7.666;2023-07-31T20:48:13;22.40;93.40
31038;DHT22;17702;47.590;7.666;2023-07-31T20:50:39;22.40;93.70
31038;DHT22;17702;47.590;7.666;2023-07-31T20:53:05;22.40;93.20
31038;DHT22;17702;47.590;7.666;2023-07-31T20:55:32;22.40;93.70
31038;DHT22;17702;47.590;7.666;2023-07-31T20:57:57;22.40;94.10
31038;DHT22;17702;47.590;7.666;2023-07-31T21:00:23;22.30;93.30
31038;DHT22;17702;47.590;7.666;2023-07-31T21:02:48;22.30;93.60
31038;DHT22;17702;47.590;7.666;2023-07-31T21:05:14;22.30;93.90
31038;DHT22;17702;47.590;7.666;2023-07-31T21:07:39;22.30;94.00
31038;DHT22;17702;47.590;7.666;2023-07-31T21:10:08;22.30;94.60
31038;DHT22;17702;47.590;7.666;2023-07-31T21:12:34;22.30;95.00
31038;DHT22;17702;47.590;7.666;2023-07-31T21:15:00;22.30;94.40
31038;DHT22;17702;47.590;7.666;2023-07-31T21:17:26;22.30;94.90
31038;DHT22;17702;47.590;7.666;2023-07-31T21:19:52;22.30;94.50
31038;DHT22;17702;47.590;7.666;2023-07-31T21:22:17;22.30;94.60
31038;DHT22;17702;47.590;7.666;2023-07-31T21:24:43;22.30;95.60
31038;DHT22;17702;47.590;7.666;2023-07-31T21:27:08;22.20;95.30
31038;DHT22;17702;47.590;7.666;2023-07-31T21:29:34;22.20;96.30
31038;DHT22;17702;47.590;7.666;2023-07-31T21:31:59;22.20;96.30
31038;DHT22;17702;47.590;7.666;2023-07-31T21:34:27;22.20;96.20
31038;DHT22;17702;47.590;7.666;2023-07-31T21:36:52;22.20;96.80
31038;DHT22;17702;47.590;7.666;2023-07-31T21:39:18;22.10;97.30
31038;DHT22;17702;47.590;7.666;2023-07-31T21:41:45;22.10;98.00
31038;DHT22;17702;47.590;7.666;2023-07-31T21:44:11;22.00;98.60
31038;DHT22;17702;47.590;7.666;2023-07-31T21:46:36;22.00;98.60
31038;DHT22;17702;47.590;7.666;2023-07-31T21:49:02;22.00;98.70
31038;DHT22;17702;47.590;7.666;2023-07-31T21:51:27;22.00;99.10
31038;DHT22;17702;47.590;7.666;2023-07-31T21:53:53;22.00;99.70
31038;DHT22;17702;47.590;7.666;2023-07-31T21:56:18;21.90;99.60
31038;DHT22;17702;47.590;7.666;2023-07-31T21:58:44;21.90;99.60
31038;DHT22;17702;47.590;7.666;2023-07-31T22:01:09;21.90;99.80
31038;DHT22;17702;47.590;7.666;2023-07-31T22:03:35;21.90;99.80
31038;DHT22;17702;47.590;7.666;2023-07-31T22:06:02;21.90;99.40
31038;DHT22;17702;47.590;7.666;2023-07-31T22:08:28;21.90;99.80
31038;DHT22;17702;47.590;7.666;2023-07-31T22:10:53;21.90;99.80
31038;DHT22;17702;47.590;7.666;2023-07-31T22:13:19;21.90;99.70
31038;DHT22;17702;47.590;7.666;2023-07-31T22:15:45;21.90;99.70
31038;DHT22;17702;47.590;7.666;2023-07-31T22:18:10;21.80;99.90
31038;DHT22;17702;47.590;7.666;2023-07-31T22:20:36;21.80;99.90
31038;DHT22;17702;47.590;7.666;2023-07-31T22:23:01;21.80;99.90
31038;DHT22;17702;47.590;7.666;2023-07-31T22:25:27;21.70;99.90
31038;DHT22;17702;47.590;7.666;2023-07-31T22:27:52;21.70;99.90
31038;DHT22;17702;47.590;7.666;2023-07-31T22:30:18;21.70;99.90
31038;DHT22;17702;47.590;7.666;2023-07-31T22:32:44;21.70;99.90
31038;DHT22;17702;47.590;7.666;2023-07-31T22:35:09;21.70;99.90
31038;DHT22;17702;47.590;7.666;2023-07-31T22:37:35;21.70;99.90
31038;DHT22;17702;47.590;7.666;2023-07-31T22:40:00;21.70;99.90
31038;DHT22;17702;47.590;7.666;2023-07-31T22:42:26;21.60;99.90
31038;DHT22;17702;47.590;7.666;2023-07-31T22:44:51;21.60;99.90
31038;DHT22;17702;47.590;7.666;2023-07-31T22:47:17;21.60;99.90
31038;DHT22;17702;47.590;7.666;2023-07-31T22:49:42;21.60;99.90
31038;DHT22;17702;47.590;7.666;2023-07-31T22:52:08;21.50;99.90
31038;DHT22;17702;47.590;7.666;2023-07-31T22:54:36;21.50;99.90
31038;DHT22;17702;47.590;7.666;2023-07-31T22:57:01;21.50;99.90
31038;DHT22;17702;47.590;7.666;2023-07-31T22:59:27;21.50;99.90
31038;DHT22;17702;47.590;7.666;2023-07-31T23:01:52;21.50;99.90
31038;DHT22;17702;47.590;7.666;2023-07-31T23:04:18;21.50;99.90
31038;DHT22;17702;47.590;7.666;2023-07-31T23:06:43;21.50;99.90
31038;DHT22;17702;47.590;7.666;2023-07-31T23:09:09;21.50;99.90
31038;DHT22;17702;47.590;7.666;2023-07-31T23:11:34;21.40;99.90
31038;DHT22;17702;47.590;7.666;2023-07-31T23:14:00;21.40;99.90
31038;DHT22;17702;47.590;7.666;2023-07-31T23:16:25;21.40;99.90
31038;DHT22;17702;47.590;7.666;2023-07-31T23:18:51;21.40;99.90
31038;DHT22;17702;47.590;7.666;2023-07-31T23:21:16;21.40;99.90
31038;DHT22;17702;47.590;7.666;2023-07-31T23:23:42;21.40;99.90
31038;DHT22;17702;47.590;7.666;2023-07-31T23:26:08;21.40;99.90
31038;DHT22;17702;47.590;7.666;2023-07-31T23:28:33;21.40;99.90
31038;DHT22;17702;47.590;7.666;2023-07-31T23:31:02;21.40;99.90
31038;DHT22;17702;47.590;7.666;2023-07-31T23:33:30;21.40;99.90
31038;DHT22;17702;47.590;7.666;2023-07-31T23:35:56;21.40;99.90
31038;DHT22;17702;47.590;7.666;2023-07-31T23:38:21;21.40;99.90
31038;DHT22;17702;47.590;7.666;2023-07-31T23:40:47;21.40;99.90
31038;DHT22;17702;47.590;7.666;2023-07-31T23:43:13;21.50;99.90
31038;DHT22;17702;47.590;7.666;2023-07-31T23:45:38;21.40;99.90
31038;DHT22;17702;47.590;7.666;2023-07-31T23:48:04;21.40;99.90
31038;DHT22;17702;47.590;7.666;2023-07-31T23:50:29;21.50;99.90
31038;DHT22;17702;47.590;7.666;2023-07-31T23:52:56;21.40;99.90
31038;DHT22;17702;47.590;7.666;2023-07-31T23:55:22;21.50;99.90
31038;DHT22;17702;47.590;7.666;2023-07-31T23:57:48;21.50;99.90
